Time;durP1;ratioP1;P1;durP2;ratioP2;P2;SDS_P1;SDS_P2;PMS_P1;PMS_P2;Temp;Humidity;BMP_temperature;BMP_pressure;BME280_temperature;BME280_humidity;BME280_pressure;Samples;Min_cycle;Max_cycle;Signal;HPM_P1;HPM_P2
2022/07/07 00:00:42;;;;;;;;;;;25.40;48.50;;;;;;5058334;28;19913;-61
2022/07/07 00:03:08;;;;;;;;;;;25.40;48.60;;;;;;5043750;28;19964;-61
2022/07/07 00:05:33;;;;;;;;;;;25.40;48.70;;;;;;5045317;28;19920;-61
2022/07/07 00:07:58;;;;;;;;;;;25.40;48.80;;;;;;5049885;28;20143;-61
2022/07/07 00:10:24;;;;;;;;;;;25.40;48.50;;;;;;5043437;28;19931;-61
2022/07/07 00:12:49;;;;;;;;;;;25.40;48.80;;;;;;5051264;28;19917;-61
2022/07/07 00:15:15;;;;;;;;;;;25.40;48.80;;;;;;5050799;28;19970;-62
2022/07/07 00:17:40;;;;;;;;;;;25.40;48.80;;;;;;5050359;28;19913;-61
2022/07/07 00:20:06;;;;;;;;;;;25.40;48.80;;;;;;5051022;28;20019;-61
2022/07/07 00:22:31;;;;;;;;;;;25.40;48.80;;;;;;5050188;28;19920;-61
2022/07/07 00:24:57;;;;;;;;;;;25.40;48.80;;;;;;5047983;28;19965;-61
2022/07/07 00:27:22;;;;;;;;;;;25.30;48.70;;;;;;5051566;28;19920;-62
2022/07/07 00:29:48;;;;;;;;;;;25.40;49.10;;;;;;5051987;28;19913;-61
2022/07/07 00:32:13;;;;;;;;;;;25.30;49.00;;;;;;5050607;28;19916;-61
2022/07/07 00:34:39;;;;;;;;;;;25.30;49.20;;;;;;5051480;28;19917;-61
2022/07/07 00:37:04;;;;;;;;;;;25.30;49.30;;;;;;5050560;28;19917;-61
2022/07/07 00:39:30;;;;;;;;;;;25.30;49.30;;;;;;5047116;28;20011;-61
2022/07/07 00:41:55;;;;;;;;;;;25.30;49.40;;;;;;5050791;28;19966;-61
2022/07/07 00:44:22;;;;;;;;;;;25.30;49.50;;;;;;5051578;28;20273;-61
2022/07/07 00:46:49;;;;;;;;;;;25.30;49.50;;;;;;5050167;28;20411;-61
2022/07/07 00:49:14;;;;;;;;;;;25.30;49.50;;;;;;5046330;28;19923;-61
2022/07/07 00:51:40;;;;;;;;;;;25.30;49.40;;;;;;5051139;28;19938;-61
2022/07/07 00:54:06;;;;;;;;;;;25.30;49.50;;;;;;5049580;28;19919;-61
2022/07/07 00:56:32;;;;;;;;;;;25.30;49.50;;;;;;5049956;28;20007;-61
2022/07/07 00:58:59;;;;;;;;;;;25.30;49.80;;;;;;5050539;28;19996;-61
2022/07/07 01:01:24;;;;;;;;;;;25.30;49.80;;;;;;5049777;28;19918;-61
2022/07/07 01:03:50;;;;;;;;;;;25.30;49.60;;;;;;5050224;28;19913;-61
2022/07/07 01:06:15;;;;;;;;;;;25.30;49.80;;;;;;5050542;28;19913;-61
2022/07/07 01:08:41;;;;;;;;;;;25.30;49.90;;;;;;5048414;28;20003;-61
2022/07/07 01:11:06;;;;;;;;;;;25.30;50.00;;;;;;5048923;28;19920;-61
2022/07/07 01:13:32;;;;;;;;;;;25.30;50.00;;;;;;5050056;28;19913;-61
2022/07/07 01:15:57;;;;;;;;;;;25.30;50.20;;;;;;5047114;28;19962;-61
2022/07/07 01:18:22;;;;;;;;;;;25.30;50.30;;;;;;5053125;28;19938;-61
2022/07/07 01:20:48;;;;;;;;;;;25.20;50.10;;;;;;5056893;28;19948;-61
2022/07/07 01:23:13;;;;;;;;;;;25.20;50.30;;;;;;5038737;28;19913;-62
2022/07/07 01:25:39;;;;;;;;;;;25.30;50.20;;;;;;5047531;28;19917;-61
2022/07/07 01:28:04;;;;;;;;;;;25.30;50.40;;;;;;5040129;28;20369;-61
2022/07/07 01:30:30;;;;;;;;;;;25.30;50.50;;;;;;5057442;28;20292;-61
2022/07/07 01:32:55;;;;;;;;;;;25.20;50.50;;;;;;5056826;28;19994;-62
2022/07/07 01:35:21;;;;;;;;;;;25.20;50.40;;;;;;5050874;28;19966;-61
2022/07/07 01:37:46;;;;;;;;;;;25.20;50.60;;;;;;5056247;28;19921;-61
2022/07/07 01:40:11;;;;;;;;;;;25.20;50.60;;;;;;5038989;28;19921;-61
2022/07/07 01:42:37;;;;;;;;;;;25.20;50.70;;;;;;5057634;28;19920;-61
2022/07/07 01:45:02;;;;;;;;;;;25.20;50.90;;;;;;5057362;28;19967;-61
2022/07/07 01:47:28;;;;;;;;;;;25.20;50.70;;;;;;5054198;28;20393;-61
2022/07/07 01:49:53;;;;;;;;;;;25.20;50.90;;;;;;5048568;28;19928;-61
2022/07/07 01:52:19;;;;;;;;;;;25.20;50.70;;;;;;5055919;28;19917;-62
2022/07/07 01:54:44;;;;;;;;;;;25.10;51.00;;;;;;5056678;28;20296;-61
2022/07/07 01:57:10;;;;;;;;;;;25.10;51.10;;;;;;5056571;28;19917;-61
2022/07/07 01:59:36;;;;;;;;;;;25.10;51.10;;;;;;5056518;28;19983;-61
2022/07/07 02:02:01;;;;;;;;;;;25.10;51.20;;;;;;5055011;28;19916;-61
2022/07/07 02:04:27;;;;;;;;;;;25.10;51.10;;;;;;5057306;28;19920;-61
2022/07/07 02:06:52;;;;;;;;;;;25.20;51.20;;;;;;5057073;28;19917;-62
2022/07/07 02:09:18;;;;;;;;;;;25.10;51.20;;;;;;5055611;28;19925;-61
2022/07/07 02:11:43;;;;;;;;;;;25.10;51.10;;;;;;5055908;28;19913;-61
2022/07/07 02:14:09;;;;;;;;;;;25.10;51.50;;;;;;5056940;28;19924;-61
2022/07/07 02:16:34;;;;;;;;;;;25.10;51.40;;;;;;5056686;28;20301;-61
2022/07/07 02:19:00;;;;;;;;;;;25.10;51.60;;;;;;5056280;28;20018;-61
2022/07/07 02:21:26;;;;;;;;;;;25.10;51.50;;;;;;5055408;28;19920;-61
2022/07/07 02:23:52;;;;;;;;;;;25.10;51.60;;;;;;5056163;28;20276;-62
2022/07/07 02:26:17;;;;;;;;;;;25.10;51.60;;;;;;5055563;28;19959;-61
2022/07/07 02:28:43;;;;;;;;;;;25.10;51.70;;;;;;5054574;28;20008;-61
2022/07/07 02:31:08;;;;;;;;;;;25.10;51.70;;;;;;5054060;28;19917;-61
2022/07/07 02:33:34;;;;;;;;;;;25.10;51.90;;;;;;5052391;28;20355;-61
2022/07/07 02:35:59;;;;;;;;;;;25.10;51.70;;;;;;5052219;28;19920;-62
2022/07/07 02:38:25;;;;;;;;;;;25.10;51.90;;;;;;5051093;28;19982;-61
2022/07/07 02:40:50;;;;;;;;;;;25.10;52.00;;;;;;5052661;28;19912;-61
2022/07/07 02:43:16;;;;;;;;;;;25.00;52.10;;;;;;5048710;28;19920;-61
2022/07/07 02:45:42;;;;;;;;;;;25.10;52.20;;;;;;5038646;28;19921;-61
2022/07/07 02:48:08;;;;;;;;;;;25.10;52.20;;;;;;5045876;28;19961;-61
2022/07/07 02:50:33;;;;;;;;;;;25.10;52.10;;;;;;5050087;28;19967;-61
2022/07/07 02:52:59;;;;;;;;;;;25.00;52.20;;;;;;5052911;28;20344;-61
2022/07/07 02:55:24;;;;;;;;;;;25.00;52.40;;;;;;5050546;28;19925;-62
2022/07/07 02:57:51;;;;;;;;;;;25.00;52.30;;;;;;5052515;28;19917;-61
2022/07/07 03:00:16;;;;;;;;;;;25.00;52.40;;;;;;5053372;28;20364;-61
2022/07/07 03:02:42;;;;;;;;;;;25.00;52.50;;;;;;5052095;28;19920;-61
2022/07/07 03:05:07;;;;;;;;;;;25.00;52.40;;;;;;5052435;28;19913;-61
2022/07/07 03:07:33;;;;;;;;;;;25.00;52.50;;;;;;5050924;28;19913;-61
2022/07/07 03:09:58;;;;;;;;;;;25.00;52.50;;;;;;5051601;28;19972;-62
2022/07/07 03:12:24;;;;;;;;;;;25.00;52.70;;;;;;5048784;28;19913;-61
2022/07/07 03:14:49;;;;;;;;;;;25.00;52.50;;;;;;5051889;28;19920;-61
2022/07/07 03:17:14;;;;;;;;;;;25.00;52.50;;;;;;5047440;28;19913;-61
2022/07/07 03:19:40;;;;;;;;;;;25.00;52.40;;;;;;5052101;28;19913;-61
2022/07/07 03:22:05;;;;;;;;;;;25.00;52.60;;;;;;5051515;28;19917;-61
2022/07/07 03:24:31;;;;;;;;;;;25.00;52.80;;;;;;5052140;28;19909;-61
2022/07/07 03:26:58;;;;;;;;;;;25.00;52.90;;;;;;5034895;28;19913;-61
2022/07/07 03:29:24;;;;;;;;;;;25.00;52.90;;;;;;5052700;28;19920;-61
2022/07/07 03:31:50;;;;;;;;;;;24.90;52.70;;;;;;5049817;28;19934;-61
2022/07/07 03:34:15;;;;;;;;;;;24.90;52.80;;;;;;5052120;28;19912;-61
2022/07/07 03:36:41;;;;;;;;;;;24.90;52.90;;;;;;5052356;28;19912;-61
2022/07/07 03:39:06;;;;;;;;;;;24.90;52.90;;;;;;5051780;28;19999;-61
2022/07/07 03:41:31;;;;;;;;;;;24.90;53.00;;;;;;5049730;28;19908;-61
2022/07/07 03:43:57;;;;;;;;;;;24.90;53.20;;;;;;5051556;28;20058;-61
2022/07/07 03:46:22;;;;;;;;;;;24.90;53.20;;;;;;5050546;28;19913;-61
2022/07/07 03:48:48;;;;;;;;;;;24.90;53.20;;;;;;5042551;28;20301;-61
2022/07/07 03:51:13;;;;;;;;;;;24.90;53.30;;;;;;5051413;28;20262;-61
2022/07/07 03:53:39;;;;;;;;;;;24.90;53.20;;;;;;5051215;28;19912;-61
2022/07/07 03:56:04;;;;;;;;;;;24.90;53.30;;;;;;5051195;28;20015;-61
2022/07/07 03:58:30;;;;;;;;;;;24.90;53.30;;;;;;5050826;28;19981;-61
2022/07/07 04:00:55;;;;;;;;;;;24.90;53.30;;;;;;5043410;28;19913;-61
2022/07/07 04:03:21;;;;;;;;;;;24.90;53.30;;;;;;5046516;28;20000;-61
2022/07/07 04:05:46;;;;;;;;;;;24.90;53.20;;;;;;5051236;28;19929;-61
2022/07/07 04:08:11;;;;;;;;;;;24.90;53.20;;;;;;5049438;28;20395;-61
2022/07/07 04:10:37;;;;;;;;;;;24.90;53.20;;;;;;5030192;28;20012;-61
2022/07/07 04:13:02;;;;;;;;;;;24.90;53.10;;;;;;5050025;28;19920;-61
2022/07/07 04:15:28;;;;;;;;;;;24.90;53.30;;;;;;5050976;28;19982;-61
2022/07/07 04:17:53;;;;;;;;;;;24.90;53.50;;;;;;5049636;28;19919;-61
2022/07/07 04:20:19;;;;;;;;;;;24.90;53.60;;;;;;5050666;28;19931;-61
2022/07/07 04:22:44;;;;;;;;;;;24.90;53.50;;;;;;5050854;28;20003;-61
2022/07/07 04:25:10;;;;;;;;;;;24.90;53.60;;;;;;5050699;28;19917;-61
2022/07/07 04:27:35;;;;;;;;;;;24.80;53.60;;;;;;5051154;28;19966;-61
2022/07/07 04:30:01;;;;;;;;;;;24.80;53.80;;;;;;5052344;28;19955;-61
2022/07/07 04:32:26;;;;;;;;;;;24.80;53.80;;;;;;5050275;28;19967;-61
2022/07/07 04:34:52;;;;;;;;;;;24.80;53.80;;;;;;5048329;28;19991;-61
2022/07/07 04:37:17;;;;;;;;;;;24.80;53.80;;;;;;5046019;28;19917;-61
2022/07/07 04:39:42;;;;;;;;;;;24.80;53.80;;;;;;5049692;28;19913;-61
2022/07/07 04:42:08;;;;;;;;;;;24.80;53.70;;;;;;5050509;28;19974;-62
2022/07/07 04:44:34;;;;;;;;;;;24.80;53.80;;;;;;5050233;28;19913;-61
2022/07/07 04:46:59;;;;;;;;;;;24.80;53.70;;;;;;5050768;28;19913;-61
2022/07/07 04:49:25;;;;;;;;;;;24.90;53.60;;;;;;5048769;28;19917;-61
2022/07/07 04:51:50;;;;;;;;;;;24.90;53.60;;;;;;5048532;28;19917;-61
2022/07/07 04:54:16;;;;;;;;;;;24.90;53.60;;;;;;5049900;28;19966;-61
2022/07/07 04:56:41;;;;;;;;;;;24.90;53.80;;;;;;5050518;28;19935;-61
2022/07/07 04:59:07;;;;;;;;;;;24.80;53.70;;;;;;5050028;28;19913;-61
2022/07/07 05:01:32;;;;;;;;;;;24.80;53.80;;;;;;5049543;28;20428;-61
2022/07/07 05:03:57;;;;;;;;;;;24.80;53.90;;;;;;5049684;28;20407;-61
2022/07/07 05:06:23;;;;;;;;;;;24.80;53.80;;;;;;5051429;28;20297;-62
2022/07/07 05:08:48;;;;;;;;;;;24.80;53.90;;;;;;5033409;28;19913;-61
2022/07/07 05:11:14;;;;;;;;;;;24.80;54.00;;;;;;5051443;28;19917;-61
2022/07/07 05:13:39;;;;;;;;;;;24.80;54.00;;;;;;5051431;28;19916;-61
2022/07/07 05:16:05;;;;;;;;;;;24.80;54.10;;;;;;5048554;28;20008;-62
2022/07/07 05:18:31;;;;;;;;;;;24.70;54.20;;;;;;5049994;28;19917;-61
2022/07/07 05:20:56;;;;;;;;;;;24.70;54.30;;;;;;5032883;28;19920;-61
2022/07/07 05:23:25;;;;;;;;;;;24.70;54.40;;;;;;5049703;28;19916;-61
2022/07/07 05:25:51;;;;;;;;;;;24.70;54.50;;;;;;5050973;28;19940;-61
2022/07/07 05:28:16;;;;;;;;;;;24.70;54.50;;;;;;5050050;28;19913;-62
2022/07/07 05:30:41;;;;;;;;;;;24.70;54.50;;;;;;5050326;28;20265;-61
2022/07/07 05:33:07;;;;;;;;;;;24.70;54.50;;;;;;5049445;28;19913;-61
2022/07/07 05:35:33;;;;;;;;;;;24.70;54.50;;;;;;5047811;28;19939;-61
2022/07/07 05:37:59;;;;;;;;;;;24.70;54.40;;;;;;5050561;28;19924;-62
2022/07/07 05:40:24;;;;;;;;;;;24.70;54.40;;;;;;5049618;28;19916;-62
2022/07/07 05:42:50;;;;;;;;;;;24.70;54.30;;;;;;5048637;28;19917;-61
2022/07/07 05:45:15;;;;;;;;;;;24.70;54.40;;;;;;5049294;28;19912;-61
2022/07/07 05:47:41;;;;;;;;;;;24.70;54.50;;;;;;5048168;28;19912;-61
2022/07/07 05:50:07;;;;;;;;;;;24.70;54.50;;;;;;5032439;28;19916;-61
2022/07/07 05:52:32;;;;;;;;;;;24.70;54.70;;;;;;5050607;28;19912;-61
2022/07/07 05:54:58;;;;;;;;;;;24.70;54.70;;;;;;5050130;28;19999;-62
2022/07/07 05:57:24;;;;;;;;;;;24.70;54.60;;;;;;5050772;28;19931;-61
2022/07/07 05:59:49;;;;;;;;;;;24.70;54.70;;;;;;5051335;28;19913;-62
2022/07/07 06:02:15;;;;;;;;;;;24.70;54.70;;;;;;5048882;28;19924;-62
2022/07/07 06:04:41;;;;;;;;;;;24.70;54.80;;;;;;5053043;28;19913;-61
2022/07/07 06:07:06;;;;;;;;;;;24.70;54.60;;;;;;5049243;28;19920;-62
2022/07/07 06:09:32;;;;;;;;;;;24.60;54.80;;;;;;5052284;28;19925;-62
2022/07/07 06:11:58;;;;;;;;;;;24.60;54.80;;;;;;5053346;28;19919;-61
2022/07/07 06:14:23;;;;;;;;;;;24.70;54.80;;;;;;5053443;28;19913;-61
2022/07/07 06:16:49;;;;;;;;;;;24.70;54.60;;;;;;5052731;28;20277;-61
2022/07/07 06:19:14;;;;;;;;;;;24.70;54.70;;;;;;5051596;28;19940;-61
2022/07/07 06:21:40;;;;;;;;;;;24.70;54.90;;;;;;5051286;28;19924;-62
2022/07/07 06:24:05;;;;;;;;;;;24.70;55.10;;;;;;5053089;28;20362;-61
2022/07/07 06:26:31;;;;;;;;;;;24.70;55.10;;;;;;5051002;28;19966;-61
2022/07/07 06:28:56;;;;;;;;;;;24.70;55.10;;;;;;5050785;28;19920;-61
2022/07/07 06:31:21;;;;;;;;;;;24.70;55.20;;;;;;5053137;28;19913;-61
2022/07/07 06:33:47;;;;;;;;;;;24.60;55.10;;;;;;5052089;28;19952;-62
2022/07/07 06:36:12;;;;;;;;;;;24.70;55.20;;;;;;5052865;28;19917;-61
2022/07/07 06:38:38;;;;;;;;;;;24.60;55.20;;;;;;5047269;28;19913;-61
2022/07/07 06:41:03;;;;;;;;;;;24.70;55.30;;;;;;5054226;28;19909;-62
2022/07/07 06:43:29;;;;;;;;;;;24.70;55.30;;;;;;5052531;28;19928;-62
2022/07/07 06:45:54;;;;;;;;;;;24.70;55.20;;;;;;5053654;28;19924;-62
2022/07/07 06:48:20;;;;;;;;;;;24.70;55.30;;;;;;5052154;28;19924;-61
2022/07/07 06:50:45;;;;;;;;;;;24.70;55.30;;;;;;5049778;28;19917;-62
2022/07/07 06:53:11;;;;;;;;;;;24.70;55.10;;;;;;5048216;28;19920;-62
2022/07/07 06:55:36;;;;;;;;;;;24.70;55.10;;;;;;5053917;28;19920;-61
2022/07/07 06:58:05;;;;;;;;;;;24.70;55.00;;;;;;5054192;28;20268;-61
2022/07/07 07:00:30;;;;;;;;;;;24.80;55.00;;;;;;5051835;28;19917;-61
2022/07/07 07:02:56;;;;;;;;;;;24.80;54.80;;;;;;5051769;28;19909;-61
2022/07/07 07:05:22;;;;;;;;;;;24.90;54.80;;;;;;5049918;28;19974;-61
2022/07/07 07:07:47;;;;;;;;;;;24.90;54.60;;;;;;5049271;28;19944;-61
2022/07/07 07:10:13;;;;;;;;;;;24.90;54.40;;;;;;5043399;28;19929;-62
2022/07/07 07:12:38;;;;;;;;;;;24.90;54.20;;;;;;5050966;28;19958;-62
2022/07/07 07:15:04;;;;;;;;;;;24.90;54.40;;;;;;5049507;28;19920;-63
2022/07/07 07:17:30;;;;;;;;;;;24.90;54.40;;;;;;5054880;28;20397;-63
2022/07/07 07:19:55;;;;;;;;;;;24.90;54.20;;;;;;5051011;28;19912;-62
2022/07/07 07:22:21;;;;;;;;;;;24.90;54.10;;;;;;5049054;28;19967;-62
2022/07/07 07:24:46;;;;;;;;;;;25.00;53.90;;;;;;5047613;28;19921;-62
2022/07/07 07:27:12;;;;;;;;;;;25.00;53.90;;;;;;5051226;28;20411;-62
2022/07/07 07:29:37;;;;;;;;;;;25.00;53.90;;;;;;5057379;28;20349;-61
2022/07/07 07:32:03;;;;;;;;;;;25.00;53.90;;;;;;5050202;28;19967;-61
2022/07/07 07:34:29;;;;;;;;;;;24.90;53.90;;;;;;5052262;28;19990;-61
2022/07/07 07:36:54;;;;;;;;;;;24.90;54.00;;;;;;5048733;28;19916;-62
2022/07/07 07:39:20;;;;;;;;;;;24.90;53.90;;;;;;5049858;28;19923;-61
2022/07/07 07:41:45;;;;;;;;;;;24.90;54.00;;;;;;5050871;28;20339;-61
2022/07/07 07:44:11;;;;;;;;;;;24.90;54.30;;;;;;5050595;28;20332;-62
2022/07/07 07:46:36;;;;;;;;;;;24.80;54.40;;;;;;5050732;28;19924;-62
2022/07/07 07:49:05;;;;;;;;;;;24.70;54.40;;;;;;5051449;28;20369;-61
2022/07/07 07:51:31;;;;;;;;;;;24.90;54.30;;;;;;5052277;28;19917;-60
2022/07/07 07:53:57;;;;;;;;;;;24.80;54.40;;;;;;5051386;28;19920;-61
2022/07/07 07:56:22;;;;;;;;;;;24.80;54.40;;;;;;5030353;28;20293;-61
2022/07/07 07:58:48;;;;;;;;;;;24.80;54.50;;;;;;5046805;28;19971;-60
2022/07/07 08:01:13;;;;;;;;;;;24.70;54.60;;;;;;5049483;28;19919;-62
2022/07/07 08:03:38;;;;;;;;;;;24.60;54.80;;;;;;5049121;28;19917;-61
2022/07/07 08:06:04;;;;;;;;;;;24.60;54.80;;;;;;5048339;28;19923;-61
2022/07/07 08:08:29;;;;;;;;;;;24.60;54.80;;;;;;5048764;28;19924;-61
2022/07/07 08:10:55;;;;;;;;;;;24.70;54.70;;;;;;5032398;28;19974;-61
2022/07/07 08:13:21;;;;;;;;;;;24.80;54.60;;;;;;5050377;28;19920;-62
2022/07/07 08:15:46;;;;;;;;;;;24.80;54.70;;;;;;5051201;28;20384;-62
2022/07/07 08:18:11;;;;;;;;;;;24.90;54.40;;;;;;5041940;28;20287;-61
2022/07/07 08:20:37;;;;;;;;;;;24.90;54.50;;;;;;5051223;28;20020;-61
2022/07/07 08:23:03;;;;;;;;;;;24.90;54.70;;;;;;5030849;28;19913;-61
2022/07/07 08:25:28;;;;;;;;;;;24.70;54.80;;;;;;5050821;28;19916;-61
2022/07/07 08:27:53;;;;;;;;;;;24.70;55.10;;;;;;5050370;28;19913;-61
2022/07/07 08:30:19;;;;;;;;;;;24.70;55.20;;;;;;5062553;28;19997;-60
2022/07/07 08:32:45;;;;;;;;;;;24.60;55.20;;;;;;5046905;28;19921;-61
2022/07/07 08:35:11;;;;;;;;;;;24.70;55.30;;;;;;5048272;28;20027;-62
2022/07/07 08:37:37;;;;;;;;;;;24.70;55.20;;;;;;5046368;28;19917;-62
2022/07/07 08:40:03;;;;;;;;;;;24.70;54.90;;;;;;5050516;28;19966;-60
2022/07/07 08:42:28;;;;;;;;;;;24.70;55.00;;;;;;5050353;28;19948;-61
2022/07/07 08:44:54;;;;;;;;;;;24.80;54.80;;;;;;5051418;28;19916;-61
2022/07/07 08:47:19;;;;;;;;;;;24.80;54.80;;;;;;5049936;28;19974;-62
2022/07/07 08:49:45;;;;;;;;;;;24.80;55.00;;;;;;5050205;28;20440;-60
2022/07/07 08:52:10;;;;;;;;;;;24.80;54.80;;;;;;5049307;28;19919;-60
2022/07/07 08:54:36;;;;;;;;;;;24.90;55.00;;;;;;5049794;28;20633;-61
2022/07/07 08:57:01;;;;;;;;;;;24.90;54.80;;;;;;5049275;28;19967;-60
2022/07/07 08:59:27;;;;;;;;;;;24.90;54.80;;;;;;5051437;28;20315;-60
2022/07/07 09:01:53;;;;;;;;;;;24.90;54.80;;;;;;5047885;28;19909;-60
2022/07/07 09:04:19;;;;;;;;;;;24.90;54.90;;;;;;5052736;28;20211;-62
2022/07/07 09:06:54;;;;;;;;;;;24.90;55.00;;;;;;5050431;28;19924;-62
2022/07/07 09:09:36;;;;;;;;;;;24.80;55.10;;;;;;5048210;28;19962;-61
2022/07/07 09:12:03;;;;;;;;;;;24.80;55.20;;;;;;5049662;28;20318;-60
2022/07/07 09:14:33;;;;;;;;;;;24.70;55.20;;;;;;5049843;28;20258;-61
2022/07/07 09:16:59;;;;;;;;;;;24.80;55.20;;;;;;5045397;28;20574;-60
2022/07/07 09:19:24;;;;;;;;;;;24.80;55.10;;;;;;5050310;28;19913;-60
2022/07/07 09:21:50;;;;;;;;;;;24.80;55.20;;;;;;5043621;28;19917;-61
2022/07/07 09:24:15;;;;;;;;;;;24.80;55.10;;;;;;5050029;28;20051;-62
2022/07/07 09:26:44;;;;;;;;;;;24.80;55.00;;;;;;5043061;28;19920;-61
2022/07/07 09:29:19;;;;;;;;;;;24.80;54.90;;;;;;5045264;28;19913;-61
2022/07/07 09:32:07;;;;;;;;;;;24.90;55.00;;;;;;5048140;28;19924;-61
2022/07/07 09:34:34;;;;;;;;;;;24.90;54.70;;;;;;5043905;28;20323;-62
2022/07/07 09:39:46;;;;;;;;;;;25.00;54.60;;;;;;5053105;28;19915;-60
2022/07/07 09:42:18;;;;;;;;;;;25.00;54.50;;;;;;5050987;28;19913;-61
2022/07/07 09:44:45;;;;;;;;;;;24.90;54.50;;;;;;5054793;28;19913;-61
2022/07/07 09:47:10;;;;;;;;;;;25.00;54.50;;;;;;5050884;28;19975;-61
2022/07/07 09:49:40;;;;;;;;;;;25.00;54.50;;;;;;5053189;28;19913;-61
2022/07/07 09:52:17;;;;;;;;;;;25.00;54.40;;;;;;5051177;28;19919;-60
2022/07/07 09:54:49;;;;;;;;;;;24.90;54.50;;;;;;5044871;28;19959;-61
2022/07/07 09:57:15;;;;;;;;;;;24.90;54.60;;;;;;5050764;28;20546;-60
2022/07/07 09:59:41;;;;;;;;;;;24.90;54.60;;;;;;5054346;28;19972;-61
2022/07/07 10:02:26;;;;;;;;;;;24.90;54.70;;;;;;5051303;28;19955;-62
2022/07/07 10:04:52;;;;;;;;;;;24.80;54.70;;;;;;5051346;28;20322;-59
2022/07/07 10:07:18;;;;;;;;;;;24.80;55.00;;;;;;5050799;28;19921;-62
2022/07/07 10:09:44;;;;;;;;;;;24.80;54.80;;;;;;5052817;28;19927;-61
2022/07/07 10:12:09;;;;;;;;;;;24.80;54.80;;;;;;5052777;28;19931;-59
2022/07/07 10:14:35;;;;;;;;;;;24.80;54.80;;;;;;5053792;28;20384;-62
2022/07/07 10:17:00;;;;;;;;;;;24.80;54.60;;;;;;5050471;28;19956;-63
2022/07/07 10:19:26;;;;;;;;;;;24.90;54.60;;;;;;5052027;28;20000;-60
2022/07/07 10:21:52;;;;;;;;;;;24.90;54.40;;;;;;5050545;28;19916;-60
2022/07/07 10:24:19;;;;;;;;;;;24.90;54.50;;;;;;5052086;28;19943;-59
2022/07/07 10:26:51;;;;;;;;;;;24.80;54.40;;;;;;5044402;28;19909;-60
2022/07/07 10:29:17;;;;;;;;;;;24.90;55.10;;;;;;5046530;28;19921;-61
2022/07/07 10:31:49;;;;;;;;;;;24.90;54.40;;;;;;5050719;28;19912;-61
2022/07/07 10:34:14;;;;;;;;;;;24.90;54.30;;;;;;5046419;28;19923;-61
2022/07/07 10:36:45;;;;;;;;;;;24.90;54.20;;;;;;5052231;28;19917;-61
2022/07/07 10:39:11;;;;;;;;;;;24.90;54.10;;;;;;5047697;28;20023;-61
2022/07/07 10:41:36;;;;;;;;;;;24.80;54.20;;;;;;5051276;28;20066;-61
2022/07/07 10:44:05;;;;;;;;;;;24.80;54.20;;;;;;5050960;28;19917;-60
2022/07/07 10:46:31;;;;;;;;;;;24.80;54.20;;;;;;5050989;28;19978;-61
2022/07/07 10:49:05;;;;;;;;;;;24.80;54.20;;;;;;5045003;28;19979;-60
2022/07/07 10:51:31;;;;;;;;;;;24.80;54.20;;;;;;5030883;28;19917;-60
2022/07/07 10:54:06;;;;;;;;;;;24.80;54.40;;;;;;5046470;28;19919;-59
2022/07/07 10:57:05;;;;;;;;;;;24.80;54.40;;;;;;5051794;28;20403;-61
2022/07/07 10:59:34;;;;;;;;;;;24.70;54.20;;;;;;5048686;28;19917;-60
2022/07/07 11:02:03;;;;;;;;;;;24.70;54.10;;;;;;5045214;28;19971;-61
2022/07/07 11:04:40;;;;;;;;;;;24.70;54.20;;;;;;5056674;28;19909;-62
2022/07/07 11:07:07;;;;;;;;;;;24.70;54.10;;;;;;5050373;28;19924;-62
2022/07/07 11:09:51;;;;;;;;;;;24.70;54.00;;;;;;5051521;28;19967;-62
2022/07/07 11:12:35;;;;;;;;;;;24.70;54.00;;;;;;5049953;28;19917;-62
2022/07/07 11:15:23;;;;;;;;;;;24.80;53.90;;;;;;5050262;28;19952;-62
2022/07/07 11:17:52;;;;;;;;;;;24.90;53.70;;;;;;5067098;28;20010;-62
2022/07/07 11:20:18;;;;;;;;;;;24.90;53.50;;;;;;5051367;28;21635;-62
2022/07/07 11:22:44;;;;;;;;;;;24.90;53.50;;;;;;5049061;28;19913;-62
2022/07/07 11:25:10;;;;;;;;;;;24.90;53.40;;;;;;5048672;28;19924;-61
2022/07/07 11:27:36;;;;;;;;;;;24.90;53.40;;;;;;5049327;28;19970;-61
2022/07/07 11:30:02;;;;;;;;;;;24.90;53.40;;;;;;5052617;28;19909;-61
2022/07/07 11:32:34;;;;;;;;;;;24.90;53.30;;;;;;5050805;28;20436;-62
2022/07/07 11:35:00;;;;;;;;;;;24.90;53.30;;;;;;5051965;28;19920;-61
2022/07/07 11:37:27;;;;;;;;;;;24.90;53.40;;;;;;5047089;28;19919;-62
2022/07/07 11:39:52;;;;;;;;;;;24.80;53.50;;;;;;5048614;28;19912;-62
2022/07/07 11:42:18;;;;;;;;;;;24.80;53.40;;;;;;5050992;28;20270;-62
2022/07/07 11:44:43;;;;;;;;;;;24.80;53.50;;;;;;5051991;28;19913;-62
2022/07/07 11:47:09;;;;;;;;;;;24.70;53.40;;;;;;5049928;28;19964;-62
2022/07/07 11:49:34;;;;;;;;;;;24.80;53.40;;;;;;5051932;28;19923;-62
2022/07/07 11:51:59;;;;;;;;;;;24.90;53.20;;;;;;5051109;28;19924;-62
2022/07/07 11:54:25;;;;;;;;;;;25.00;53.10;;;;;;5050381;28;19990;-62
2022/07/07 11:56:50;;;;;;;;;;;25.00;52.90;;;;;;5046385;28;19924;-61
2022/07/07 11:59:16;;;;;;;;;;;25.00;52.90;;;;;;5049208;28;19928;-61
2022/07/07 12:01:43;;;;;;;;;;;25.10;52.90;;;;;;5046282;28;19917;-62
2022/07/07 12:04:18;;;;;;;;;;;25.10;52.80;;;;;;5050341;28;20434;-60
2022/07/07 12:06:44;;;;;;;;;;;25.10;53.00;;;;;;5047271;28;20364;-60
2022/07/07 12:09:09;;;;;;;;;;;25.00;53.10;;;;;;5049101;28;19931;-61
2022/07/07 12:11:38;;;;;;;;;;;24.90;53.30;;;;;;5050135;28;20019;-62
2022/07/07 12:14:04;;;;;;;;;;;24.90;53.30;;;;;;5046549;28;19917;-61
2022/07/07 12:16:52;;;;;;;;;;;24.90;53.30;;;;;;5048365;28;19951;-63
2022/07/07 12:19:18;;;;;;;;;;;24.90;53.20;;;;;;5050309;28;19988;-62
2022/07/07 12:21:44;;;;;;;;;;;25.00;53.10;;;;;;5044435;28;20418;-61
2022/07/07 12:24:11;;;;;;;;;;;25.00;53.00;;;;;;5045270;28;20461;-61
2022/07/07 12:26:48;;;;;;;;;;;25.00;53.20;;;;;;5046063;28;19920;-61
2022/07/07 12:29:14;;;;;;;;;;;24.90;53.30;;;;;;5047891;28;19995;-61
2022/07/07 12:31:40;;;;;;;;;;;24.90;53.50;;;;;;5049432;28;19979;-61
2022/07/07 12:34:11;;;;;;;;;;;24.90;53.50;;;;;;5043840;28;19952;-61
2022/07/07 12:36:38;;;;;;;;;;;24.90;53.60;;;;;;5048697;28;19927;-60
2022/07/07 12:39:04;;;;;;;;;;;24.90;53.60;;;;;;5046365;28;19982;-62
2022/07/07 12:41:39;;;;;;;;;;;24.90;53.70;;;;;;5050257;28;19998;-61
2022/07/07 12:44:10;;;;;;;;;;;25.00;53.90;;;;;;5043693;28;19921;-62
2022/07/07 12:46:36;;;;;;;;;;;25.00;53.90;;;;;;5049122;28;19916;-62
2022/07/07 12:49:03;;;;;;;;;;;24.90;53.90;;;;;;5048129;28;20349;-62
2022/07/07 12:51:29;;;;;;;;;;;24.90;53.80;;;;;;5048767;28;19917;-62
2022/07/07 12:53:55;;;;;;;;;;;25.00;53.70;;;;;;5048747;28;19917;-63
2022/07/07 12:56:20;;;;;;;;;;;25.00;53.50;;;;;;5049755;28;20010;-62
2022/07/07 12:58:49;;;;;;;;;;;25.00;53.40;;;;;;5046409;28;19928;-61
2022/07/07 13:01:22;;;;;;;;;;;25.00;53.40;;;;;;5047569;28;19917;-61
2022/07/07 13:03:49;;;;;;;;;;;25.00;53.40;;;;;;5047355;28;19921;-61
2022/07/07 13:06:14;;;;;;;;;;;24.90;53.30;;;;;;5043965;28;20016;-61
2022/07/07 13:08:41;;;;;;;;;;;24.90;53.30;;;;;;5046925;28;20351;-61
2022/07/07 13:11:07;;;;;;;;;;;24.90;53.40;;;;;;5044703;28;19925;-63
2022/07/07 13:13:32;;;;;;;;;;;24.90;53.50;;;;;;5047770;28;19913;-62
2022/07/07 13:15:57;;;;;;;;;;;24.90;53.20;;;;;;5049264;28;19924;-61
2022/07/07 13:18:26;;;;;;;;;;;24.90;53.10;;;;;;5046768;28;19913;-62
2022/07/07 13:20:52;;;;;;;;;;;25.00;53.00;;;;;;5050795;28;19916;-62
2022/07/07 13:23:18;;;;;;;;;;;25.00;52.80;;;;;;5049817;28;19916;-63
2022/07/07 13:25:43;;;;;;;;;;;25.10;52.50;;;;;;5047511;28;19920;-62
2022/07/07 13:28:09;;;;;;;;;;;25.10;52.30;;;;;;5043679;28;19917;-62
2022/07/07 13:30:34;;;;;;;;;;;25.20;52.10;;;;;;5046653;28;19924;-64
2022/07/07 13:33:00;;;;;;;;;;;25.30;51.80;;;;;;5047018;28;19924;-60
2022/07/07 13:35:25;;;;;;;;;;;25.30;51.60;;;;;;5049195;28;19920;-60
2022/07/07 13:37:50;;;;;;;;;;;25.30;51.50;;;;;;5048774;28;19913;-63
2022/07/07 13:40:16;;;;;;;;;;;25.30;51.40;;;;;;5045115;28;19993;-62
2022/07/07 13:42:41;;;;;;;;;;;25.30;51.30;;;;;;5048693;28;19955;-62
2022/07/07 13:45:07;;;;;;;;;;;25.30;51.30;;;;;;5048729;28;19923;-61
2022/07/07 13:47:33;;;;;;;;;;;25.20;51.10;;;;;;5046583;28;20019;-60
2022/07/07 13:49:59;;;;;;;;;;;25.30;51.00;;;;;;5047307;28;20391;-61
2022/07/07 13:52:24;;;;;;;;;;;25.20;50.90;;;;;;5050410;28;19947;-61
2022/07/07 13:54:50;;;;;;;;;;;25.30;50.90;;;;;;5050381;28;19917;-62
2022/07/07 13:57:15;;;;;;;;;;;25.20;50.90;;;;;;5050410;28;19943;-62
2022/07/07 13:59:41;;;;;;;;;;;25.30;50.80;;;;;;5045899;28;20007;-61
2022/07/07 14:02:06;;;;;;;;;;;25.30;50.80;;;;;;5046668;28;20418;-62
2022/07/07 14:04:32;;;;;;;;;;;25.20;50.70;;;;;;5045501;28;19913;-61
2022/07/07 14:06:58;;;;;;;;;;;25.30;50.70;;;;;;5043090;28;20365;-62
2022/07/07 14:09:23;;;;;;;;;;;25.30;50.60;;;;;;5048139;28;20364;-62
2022/07/07 14:11:49;;;;;;;;;;;25.30;50.70;;;;;;5048423;28;19932;-62
2022/07/07 14:14:14;;;;;;;;;;;25.20;50.50;;;;;;5049217;28;20312;-62